sensor_id;sensor_type;location;lat;lon;timestamp;P1;durP1;ratioP1;P2;durP2;ratioP2
57663;SDS011;43493;53.098;6.064;2023-04-01T00:00:57;10.70;;;8.70;;
57663;SDS011;43493;53.098;6.064;2023-04-01T00:03:23;11.10;;;8.47;;
57663;SDS011;43493;53.098;6.064;2023-04-01T00:05:52;10.37;;;8.40;;
57663;SDS011;43493;53.098;6.064;2023-04-01T00:08:18;10.60;;;9.13;;
57663;SDS011;43493;53.098;6.064;2023-04-01T00:10:44;10.67;;;8.47;;
57663;SDS011;43493;53.098;6.064;2023-04-01T00:13:10;12.00;;;9.70;;
57663;SDS011;43493;53.098;6.064;2023-04-01T00:15:36;12.47;;;9.97;;
57663;SDS011;43493;53.098;6.064;2023-04-01T00:18:03;11.47;;;9.50;;
57663;SDS011;43493;53.098;6.064;2023-04-01T00:20:29;12.20;;;9.33;;
57663;SDS011;43493;53.098;6.064;2023-04-01T00:22:55;9.17;;;7.30;;
57663;SDS011;43493;53.098;6.064;2023-04-01T00:25:21;8.30;;;7.30;;
57663;SDS011;43493;53.098;6.064;2023-04-01T00:27:47;9.20;;;8.07;;
57663;SDS011;43493;53.098;6.064;2023-04-01T00:30:14;9.77;;;7.10;;
57663;SDS011;43493;53.098;6.064;2023-04-01T00:32:40;10.03;;;8.03;;
57663;SDS011;43493;53.098;6.064;2023-04-01T00:35:06;10.47;;;8.10;;
57663;SDS011;43493;53.098;6.064;2023-04-01T00:37:34;12.47;;;8.23;;
57663;SDS011;43493;53.098;6.064;2023-04-01T00:40:01;9.57;;;8.23;;
57663;SDS011;43493;53.098;6.064;2023-04-01T00:42:29;10.60;;;9.30;;
57663;SDS011;43493;53.098;6.064;2023-04-01T00:44:55;12.13;;;9.67;;
57663;SDS011;43493;53.098;6.064;2023-04-01T00:47:21;12.83;;;9.83;;
57663;SDS011;43493;53.098;6.064;2023-04-01T00:49:51;12.87;;;9.83;;
57663;SDS011;43493;53.098;6.064;2023-04-01T00:52:20;13.20;;;9.73;;
57663;SDS011;43493;53.098;6.064;2023-04-01T00:54:49;12.37;;;10.20;;
57663;SDS011;43493;53.098;6.064;2023-04-01T00:57:28;12.77;;;10.40;;
57663;SDS011;43493;53.098;6.064;2023-04-01T00:59:57;13.27;;;9.87;;
57663;SDS011;43493;53.098;6.064;2023-04-01T01:02:24;13.80;;;9.97;;
57663;SDS011;43493;53.098;6.064;2023-04-01T01:04:50;13.83;;;9.80;;
57663;SDS011;43493;53.098;6.064;2023-04-01T01:10:11;12.07;;;9.73;;
57663;SDS011;43493;53.098;6.064;2023-04-01T01:12:46;13.27;;;9.70;;
57663;SDS011;43493;53.098;6.064;2023-04-01T01:15:29;13.13;;;10.80;;
57663;SDS011;43493;53.098;6.064;2023-04-01T01:18:19;12.47;;;9.97;;
57663;SDS011;43493;53.098;6.064;2023-04-01T01:20:56;11.97;;;10.47;;
57663;SDS011;43493;53.098;6.064;2023-04-01T01:24:14;12.03;;;10.00;;
57663;SDS011;43493;53.098;6.064;2023-04-01T01:32:18;11.90;;;10.10;;
57663;SDS011;43493;53.098;6.064;2023-04-01T01:37:45;16.67;;;10.53;;
57663;SDS011;43493;53.098;6.064;2023-04-01T01:40:12;12.53;;;10.10;;
57663;SDS011;43493;53.098;6.064;2023-04-01T01:42:41;13.77;;;10.10;;
57663;SDS011;43493;53.098;6.064;2023-04-01T01:45:10;15.73;;;10.37;;
57663;SDS011;43493;53.098;6.064;2023-04-01T01:47:39;12.47;;;10.17;;
57663;SDS011;43493;53.098;6.064;2023-04-01T01:50:07;16.13;;;10.30;;
57663;SDS011;43493;53.098;6.064;2023-04-01T01:52:35;13.80;;;10.30;;
57663;SDS011;43493;53.098;6.064;2023-04-01T01:55:01;15.73;;;10.17;;
57663;SDS011;43493;53.098;6.064;2023-04-01T01:57:31;13.63;;;9.83;;
57663;SDS011;43493;53.098;6.064;2023-04-01T02:00:02;12.73;;;10.20;;
57663;SDS011;43493;53.098;6.064;2023-04-01T02:02:39;10.83;;;8.87;;
57663;SDS011;43493;53.098;6.064;2023-04-01T02:05:08;11.77;;;8.80;;
57663;SDS011;43493;53.098;6.064;2023-04-01T02:07:39;12.87;;;9.30;;
57663;SDS011;43493;53.098;6.064;2023-04-01T02:10:12;12.03;;;7.80;;
57663;SDS011;43493;53.098;6.064;2023-04-01T02:12:38;11.33;;;7.30;;
57663;SDS011;43493;53.098;6.064;2023-04-01T02:15:06;10.60;;;7.43;;
57663;SDS011;43493;53.098;6.064;2023-04-01T02:17:35;12.53;;;7.93;;
57663;SDS011;43493;53.098;6.064;2023-04-01T02:20:13;9.77;;;6.63;;
57663;SDS011;43493;53.098;6.064;2023-04-01T02:22:43;12.23;;;7.20;;
57663;SDS011;43493;53.098;6.064;2023-04-01T02:25:20;10.53;;;7.70;;
57663;SDS011;43493;53.098;6.064;2023-04-01T02:27:50;13.70;;;8.00;;
57663;SDS011;43493;53.098;6.064;2023-04-01T02:30:16;8.13;;;6.20;;
57663;SDS011;43493;53.098;6.064;2023-04-01T02:32:43;9.43;;;5.23;;
57663;SDS011;43493;53.098;6.064;2023-04-01T02:35:10;6.97;;;4.67;;
57663;SDS011;43493;53.098;6.064;2023-04-01T02:37:39;6.60;;;4.80;;
57663;SDS011;43493;53.098;6.064;2023-04-01T02:40:11;5.03;;;3.50;;
57663;SDS011;43493;53.098;6.064;2023-04-01T02:42:39;5.53;;;3.97;;
57663;SDS011;43493;53.098;6.064;2023-04-01T02:45:05;5.90;;;3.53;;
57663;SDS011;43493;53.098;6.064;2023-04-01T02:47:31;5.73;;;3.60;;
57663;SDS011;43493;53.098;6.064;2023-04-01T02:49:57;6.40;;;3.77;;
57663;SDS011;43493;53.098;6.064;2023-04-01T02:52:27;7.30;;;4.90;;
57663;SDS011;43493;53.098;6.064;2023-04-01T02:54:53;7.80;;;5.63;;
57663;SDS011;43493;53.098;6.064;2023-04-01T02:57:20;10.80;;;7.73;;
57663;SDS011;43493;53.098;6.064;2023-04-01T02:59:46;12.57;;;8.30;;
57663;SDS011;43493;53.098;6.064;2023-04-01T03:02:12;14.50;;;9.87;;
57663;SDS011;43493;53.098;6.064;2023-04-01T03:04:38;14.27;;;10.77;;
57663;SDS011;43493;53.098;6.064;2023-04-01T03:07:04;15.23;;;11.80;;
57663;SDS011;43493;53.098;6.064;2023-04-01T03:09:30;15.70;;;11.17;;
57663;SDS011;43493;53.098;6.064;2023-04-01T03:11:55;13.10;;;10.40;;
57663;SDS011;43493;53.098;6.064;2023-04-01T03:14:21;15.03;;;11.03;;
57663;SDS011;43493;53.098;6.064;2023-04-01T03:16:47;15.53;;;10.90;;
57663;SDS011;43493;53.098;6.064;2023-04-01T03:19:13;12.40;;;10.37;;
57663;SDS011;43493;53.098;6.064;2023-04-01T03:21:38;16.00;;;10.70;;
57663;SDS011;43493;53.098;6.064;2023-04-01T03:24:04;14.30;;;11.73;;
57663;SDS011;43493;53.098;6.064;2023-04-01T03:26:31;16.30;;;12.67;;
57663;SDS011;43493;53.098;6.064;2023-04-01T03:28:57;17.23;;;12.00;;
57663;SDS011;43493;53.098;6.064;2023-04-01T03:31:23;15.93;;;11.50;;
57663;SDS011;43493;53.098;6.064;2023-04-01T03:33:49;17.23;;;13.37;;
57663;SDS011;43493;53.098;6.064;2023-04-01T03:36:15;15.73;;;12.77;;
57663;SDS011;43493;53.098;6.064;2023-04-01T03:38:41;17.57;;;13.27;;
57663;SDS011;43493;53.098;6.064;2023-04-01T03:41:11;16.63;;;13.67;;
57663;SDS011;43493;53.098;6.064;2023-04-01T03:43:40;18.10;;;13.00;;
57663;SDS011;43493;53.098;6.064;2023-04-01T03:46:06;20.30;;;13.97;;
57663;SDS011;43493;53.098;6.064;2023-04-01T03:48:32;19.80;;;13.47;;
57663;SDS011;43493;53.098;6.064;2023-04-01T03:50:57;20.40;;;13.70;;
57663;SDS011;43493;53.098;6.064;2023-04-01T03:53:23;23.67;;;14.17;;
57663;SDS011;43493;53.098;6.064;2023-04-01T03:55:49;19.87;;;13.27;;
57663;SDS011;43493;53.098;6.064;2023-04-01T03:58:16;17.97;;;13.57;;
57663;SDS011;43493;53.098;6.064;2023-04-01T04:00:42;18.90;;;13.33;;
57663;SDS011;43493;53.098;6.064;2023-04-01T04:03:08;17.83;;;13.80;;
57663;SDS011;43493;53.098;6.064;2023-04-01T04:05:34;16.30;;;12.97;;
57663;SDS011;43493;53.098;6.064;2023-04-01T04:08:00;19.30;;;13.43;;
57663;SDS011;43493;53.098;6.064;2023-04-01T04:10:26;20.17;;;13.23;;
57663;SDS011;43493;53.098;6.064;2023-04-01T04:12:54;18.40;;;12.97;;
57663;SDS011;43493;53.098;6.064;2023-04-01T04:15:20;18.90;;;13.30;;
57663;SDS011;43493;53.098;6.064;2023-04-01T04:17:46;20.63;;;13.93;;
57663;SDS011;43493;53.098;6.064;2023-04-01T04:20:12;17.90;;;12.87;;
57663;SDS011;43493;53.098;6.064;2023-04-01T04:22:38;19.03;;;13.10;;
57663;SDS011;43493;53.098;6.064;2023-04-01T04:25:04;19.20;;;14.70;;
57663;SDS011;43493;53.098;6.064;2023-04-01T04:27:30;18.90;;;13.63;;
57663;SDS011;43493;53.098;6.064;2023-04-01T04:29:56;22.23;;;14.07;;
57663;SDS011;43493;53.098;6.064;2023-04-01T04:32:22;19.70;;;13.67;;
57663;SDS011;43493;53.098;6.064;2023-04-01T04:34:47;18.63;;;13.87;;
57663;SDS011;43493;53.098;6.064;2023-04-01T04:37:13;20.83;;;14.40;;
57663;SDS011;43493;53.098;6.064;2023-04-01T04:39:39;19.80;;;13.77;;
57663;SDS011;43493;53.098;6.064;2023-04-01T04:42:05;22.53;;;15.63;;
57663;SDS011;43493;53.098;6.064;2023-04-01T04:44:31;19.87;;;14.03;;
57663;SDS011;43493;53.098;6.064;2023-04-01T04:46:56;23.50;;;14.90;;
57663;SDS011;43493;53.098;6.064;2023-04-01T04:49:22;20.23;;;14.37;;
57663;SDS011;43493;53.098;6.064;2023-04-01T04:51:48;23.23;;;15.67;;
57663;SDS011;43493;53.098;6.064;2023-04-01T04:54:14;21.83;;;15.40;;
57663;SDS011;43493;53.098;6.064;2023-04-01T04:56:40;20.50;;;14.77;;
57663;SDS011;43493;53.098;6.064;2023-04-01T04:59:06;23.93;;;16.00;;
57663;SDS011;43493;53.098;6.064;2023-04-01T05:01:32;25.83;;;16.83;;
57663;SDS011;43493;53.098;6.064;2023-04-01T05:03:58;26.67;;;16.13;;
57663;SDS011;43493;53.098;6.064;2023-04-01T05:06:24;30.70;;;17.73;;
57663;SDS011;43493;53.098;6.064;2023-04-01T05:08:54;24.07;;;16.73;;
57663;SDS011;43493;53.098;6.064;2023-04-01T05:11:21;27.53;;;16.60;;
57663;SDS011;43493;53.098;6.064;2023-04-01T05:13:47;26.30;;;17.73;;
57663;SDS011;43493;53.098;6.064;2023-04-01T05:16:14;29.90;;;18.57;;
57663;SDS011;43493;53.098;6.064;2023-04-01T05:18:41;27.13;;;18.13;;
57663;SDS011;43493;53.098;6.064;2023-04-01T05:21:08;31.50;;;18.00;;
57663;SDS011;43493;53.098;6.064;2023-04-01T05:23:35;25.83;;;17.60;;
57663;SDS011;43493;53.098;6.064;2023-04-01T05:26:08;25.80;;;17.57;;
57663;SDS011;43493;53.098;6.064;2023-04-01T05:28:38;27.93;;;18.03;;
57663;SDS011;43493;53.098;6.064;2023-04-01T05:31:04;32.13;;;18.50;;
57663;SDS011;43493;53.098;6.064;2023-04-01T05:33:31;27.37;;;18.43;;
57663;SDS011;43493;53.098;6.064;2023-04-01T05:36:04;29.93;;;17.83;;
57663;SDS011;43493;53.098;6.064;2023-04-01T05:38:34;26.10;;;17.23;;
57663;SDS011;43493;53.098;6.064;2023-04-01T05:41:01;32.80;;;19.40;;
57663;SDS011;43493;53.098;6.064;2023-04-01T05:43:27;31.63;;;19.27;;
57663;SDS011;43493;53.098;6.064;2023-04-01T05:45:54;31.03;;;20.07;;
57663;SDS011;43493;53.098;6.064;2023-04-01T05:48:20;29.97;;;18.37;;
57663;SDS011;43493;53.098;6.064;2023-04-01T05:50:46;33.97;;;19.27;;
57663;SDS011;43493;53.098;6.064;2023-04-01T05:53:12;30.77;;;18.17;;
57663;SDS011;43493;53.098;6.064;2023-04-01T05:55:37;36.67;;;20.80;;
57663;SDS011;43493;53.098;6.064;2023-04-01T05:58:03;33.47;;;20.37;;
57663;SDS011;43493;53.098;6.064;2023-04-01T06:00:29;34.27;;;21.23;;
57663;SDS011;43493;53.098;6.064;2023-04-01T06:02:57;30.40;;;20.20;;
57663;SDS011;43493;53.098;6.064;2023-04-01T06:05:26;31.63;;;20.30;;
57663;SDS011;43493;53.098;6.064;2023-04-01T06:08:00;36.13;;;20.77;;
57663;SDS011;43493;53.098;6.064;2023-04-01T06:18:50;44.37;;;21.63;;
57663;SDS011;43493;53.098;6.064;2023-04-01T06:25:34;42.17;;;23.43;;
57663;SDS011;43493;53.098;6.064;2023-04-01T06:39:56;30.88;;;17.75;;
57663;SDS011;43493;53.098;6.064;2023-04-01T06:47:56;25.67;;;16.87;;
57663;SDS011;43493;53.098;6.064;2023-04-01T06:56:08;23.77;;;16.47;;
57663;SDS011;43493;53.098;6.064;2023-04-01T07:01:24;29.07;;;16.40;;
57663;SDS011;43493;53.098;6.064;2023-04-01T07:07:02;21.80;;;13.83;;
57663;SDS011;43493;53.098;6.064;2023-04-01T07:09:50;17.80;;;12.07;;
57663;SDS011;43493;53.098;6.064;2023-04-01T07:12:26;20.87;;;12.90;;
57663;SDS011;43493;53.098;6.064;2023-04-01T07:15:04;23.70;;;12.57;;
57663;SDS011;43493;53.098;6.064;2023-04-01T07:18:37;18.87;;;12.17;;
57663;SDS011;43493;53.098;6.064;2023-04-01T07:20:50;18.97;;;12.07;;
57663;SDS011;43493;53.098;6.064;2023-04-01T07:23:24;18.40;;;11.73;;
57663;SDS011;43493;53.098;6.064;2023-04-01T07:25:58;21.43;;;12.10;;
57663;SDS011;43493;53.098;6.064;2023-04-01T07:28:32;23.57;;;12.57;;
57663;SDS011;43493;53.098;6.064;2023-04-01T07:31:15;23.70;;;15.43;;
57663;SDS011;43493;53.098;6.064;2023-04-01T07:39:30;24.37;;;15.27;;
57663;SDS011;43493;53.098;6.064;2023-04-01T07:42:19;32.07;;;20.63;;
57663;SDS011;43493;53.098;6.064;2023-04-01T07:59:06;32.67;;;20.20;;
57663;SDS011;43493;53.098;6.064;2023-04-01T08:04:21;31.90;;;20.65;;
57663;SDS011;43493;53.098;6.064;2023-04-01T08:15:42;24.67;;;18.27;;
57663;SDS011;43493;53.098;6.064;2023-04-01T08:20:58;24.02;;;19.63;;
57663;SDS011;43493;53.098;6.064;2023-04-01T08:23:27;22.83;;;19.20;;
57663;SDS011;43493;53.098;6.064;2023-04-01T08:26:00;23.47;;;19.23;;
57663;SDS011;43493;53.098;6.064;2023-04-01T08:33:50;19.73;;;17.63;;
57663;SDS011;43493;53.098;6.064;2023-04-01T08:36:33;21.37;;;17.37;;
57663;SDS011;43493;53.098;6.064;2023-04-01T08:39:09;18.17;;;16.13;;
57663;SDS011;43493;53.098;6.064;2023-04-01T08:41:53;19.50;;;17.40;;
57663;SDS011;43493;53.098;6.064;2023-04-01T08:50:35;18.90;;;16.07;;
57663;SDS011;43493;53.098;6.064;2023-04-01T09:04:05;18.67;;;16.50;;
57663;SDS011;43493;53.098;6.064;2023-04-01T09:29:40;18.80;;;14.37;;
57663;SDS011;43493;53.098;6.064;2023-04-01T09:35:24;16.10;;;11.40;;
57663;SDS011;43493;53.098;6.064;2023-04-01T09:40:54;12.80;;;9.80;;
57663;SDS011;43493;53.098;6.064;2023-04-01T09:43:22;14.33;;;9.83;;
57663;SDS011;43493;53.098;6.064;2023-04-01T09:46:07;14.17;;;10.53;;
57663;SDS011;43493;53.098;6.064;2023-04-01T09:52:14;19.00;;;11.80;;
57663;SDS011;43493;53.098;6.064;2023-04-01T10:05:54;12.40;;;9.40;;
57663;SDS011;43493;53.098;6.064;2023-04-01T10:08:47;11.67;;;9.07;;
57663;SDS011;43493;53.098;6.064;2023-04-01T10:14:45;12.30;;;8.80;;
57663;SDS011;43493;53.098;6.064;2023-04-01T10:17:53;14.13;;;9.93;;
57663;SDS011;43493;53.098;6.064;2023-04-01T10:20:56;11.73;;;9.00;;
57663;SDS011;43493;53.098;6.064;2023-04-01T10:23:48;12.10;;;8.97;;
57663;SDS011;43493;53.098;6.064;2023-04-01T10:41:49;9.37;;;6.47;;
57663;SDS011;43493;53.098;6.064;2023-04-01T10:53:49;9.77;;;6.00;;
57663;SDS011;43493;53.098;6.064;2023-04-01T11:02:26;8.77;;;5.77;;
57663;SDS011;43493;53.098;6.064;2023-04-01T11:14:07;7.40;;;4.97;;
57663;SDS011;43493;53.098;6.064;2023-04-01T11:25:23;7.33;;;5.20;;
57663;SDS011;43493;53.098;6.064;2023-04-01T11:46:44;7.23;;;4.03;;
57663;SDS011;43493;53.098;6.064;2023-04-01T12:18:15;5.50;;;3.57;;
57663;SDS011;43493;53.098;6.064;2023-04-01T12:21:49;5.10;;;3.45;;
57663;SDS011;43493;53.098;6.064;2023-04-01T12:32:02;6.53;;;3.40;;
57663;SDS011;43493;53.098;6.064;2023-04-01T12:35:02;5.13;;;2.87;;
57663;SDS011;43493;53.098;6.064;2023-04-01T12:38:25;5.27;;;3.00;;
57663;SDS011;43493;53.098;6.064;2023-04-01T12:42:23;6.00;;;3.73;;
57663;SDS011;43493;53.098;6.064;2023-04-01T17:48:17;9.63;;;5.47;;
57663;SDS011;43493;53.098;6.064;2023-04-01T17:56:01;10.80;;;5.82;;
57663;SDS011;43493;53.098;6.064;2023-04-01T17:58:44;11.10;;;6.03;;
57663;SDS011;43493;53.098;6.064;2023-04-01T18:01:22;11.90;;;6.13;;
57663;SDS011;43493;53.098;6.064;2023-04-01T18:04:15;11.33;;;6.43;;
57663;SDS011;43493;53.098;6.064;2023-04-01T18:09:38;12.80;;;5.80;;
57663;SDS011;43493;53.098;6.064;2023-04-01T18:12:30;9.27;;;5.10;;
57663;SDS011;43493;53.098;6.064;2023-04-01T18:26:29;11.60;;;6.37;;
57663;SDS011;43493;53.098;6.064;2023-04-01T18:31:51;11.90;;;6.87;;
57663;SDS011;43493;53.098;6.064;2023-04-01T18:37:42;10.77;;;6.20;;
57663;SDS011;43493;53.098;6.064;2023-04-01T18:42:59;11.07;;;6.13;;
57663;SDS011;43493;53.098;6.064;2023-04-01T18:45:32;10.83;;;5.67;;
57663;SDS011;43493;53.098;6.064;2023-04-01T18:48:12;12.90;;;6.53;;
57663;SDS011;43493;53.098;6.064;2023-04-01T18:50:42;11.68;;;5.70;;
57663;SDS011;43493;53.098;6.064;2023-04-01T18:56:24;10.77;;;5.80;;
57663;SDS011;43493;53.098;6.064;2023-04-01T18:59:02;10.30;;;5.60;;
57663;SDS011;43493;53.098;6.064;2023-04-01T19:10:12;14.18;;;5.93;;
57663;SDS011;43493;53.098;6.064;2023-04-01T19:15:40;12.30;;;5.43;;
57663;SDS011;43493;53.098;6.064;2023-04-01T19:18:25;11.27;;;5.63;;
57663;SDS011;43493;53.098;6.064;2023-04-01T19:21:11;10.63;;;5.83;;
57663;SDS011;43493;53.098;6.064;2023-04-01T19:23:49;13.00;;;6.07;;
57663;SDS011;43493;53.098;6.064;2023-04-01T19:26:26;17.17;;;6.40;;
57663;SDS011;43493;53.098;6.064;2023-04-01T19:45:22;10.87;;;5.40;;
57663;SDS011;43493;53.098;6.064;2023-04-01T19:50:42;15.43;;;7.03;;
57663;SDS011;43493;53.098;6.064;2023-04-01T19:56:11;12.70;;;5.90;;
57663;SDS011;43493;53.098;6.064;2023-04-01T20:01:23;12.57;;;6.47;;
57663;SDS011;43493;53.098;6.064;2023-04-01T20:04:14;14.10;;;5.93;;
57663;SDS011;43493;53.098;6.064;2023-04-01T20:06:56;12.53;;;7.17;;
57663;SDS011;43493;53.098;6.064;2023-04-01T20:12:30;12.13;;;5.67;;
57663;SDS011;43493;53.098;6.064;2023-04-01T20:17:55;15.13;;;6.43;;
57663;SDS011;43493;53.098;6.064;2023-04-01T20:20:29;10.40;;;5.47;;
57663;SDS011;43493;53.098;6.064;2023-04-01T20:25:52;13.70;;;5.90;;
57663;SDS011;43493;53.098;6.064;2023-04-01T20:28:28;13.97;;;5.97;;
57663;SDS011;43493;53.098;6.064;2023-04-01T20:31:23;12.38;;;5.72;;
57663;SDS011;43493;53.098;6.064;2023-04-01T20:53:20;9.87;;;5.27;;
57663;SDS011;43493;53.098;6.064;2023-04-01T21:04:30;10.05;;;5.25;;
57663;SDS011;43493;53.098;6.064;2023-04-01T21:07:22;8.68;;;4.53;;
57663;SDS011;43493;53.098;6.064;2023-04-01T21:12:46;9.75;;;5.00;;
57663;SDS011;43493;53.098;6.064;2023-04-01T21:15:27;8.88;;;4.82;;
57663;SDS011;43493;53.098;6.064;2023-04-01T21:29:29;9.48;;;4.38;;
57663;SDS011;43493;53.098;6.064;2023-04-01T21:34:43;8.63;;;4.65;;
57663;SDS011;43493;53.098;6.064;2023-04-01T21:40:52;10.70;;;4.35;;
57663;SDS011;43493;53.098;6.064;2023-04-01T21:45:53;8.57;;;4.30;;
57663;SDS011;43493;53.098;6.064;2023-04-01T21:54:02;8.80;;;4.10;;
57663;SDS011;43493;53.098;6.064;2023-04-01T22:05:31;9.60;;;5.03;;
57663;SDS011;43493;53.098;6.064;2023-04-01T22:08:51;9.35;;;3.60;;
57663;SDS011;43493;53.098;6.064;2023-04-01T22:16:48;8.32;;;4.05;;
57663;SDS011;43493;53.098;6.064;2023-04-01T22:22:24;10.93;;;5.22;;
57663;SDS011;43493;53.098;6.064;2023-04-01T22:25:25;9.93;;;4.20;;
57663;SDS011;43493;53.098;6.064;2023-04-01T22:28:16;12.68;;;5.03;;
57663;SDS011;43493;53.098;6.064;2023-04-01T22:30:46;9.93;;;4.47;;
57663;SDS011;43493;53.098;6.064;2023-04-01T22:35:56;12.57;;;4.60;;
57663;SDS011;43493;53.098;6.064;2023-04-01T22:50:11;10.93;;;4.65;;
57663;SDS011;43493;53.098;6.064;2023-04-01T22:52:46;13.23;;;4.18;;
57663;SDS011;43493;53.098;6.064;2023-04-01T22:55:20;10.98;;;4.68;;
57663;SDS011;43493;53.098;6.064;2023-04-01T22:57:54;13.52;;;5.15;;
57663;SDS011;43493;53.098;6.064;2023-04-01T23:03:21;9.65;;;4.10;;
57663;SDS011;43493;53.098;6.064;2023-04-01T23:06:02;10.02;;;4.28;;
57663;SDS011;43493;53.098;6.064;2023-04-01T23:08:41;10.77;;;4.15;;
57663;SDS011;43493;53.098;6.064;2023-04-01T23:11:18;7.97;;;3.40;;
57663;SDS011;43493;53.098;6.064;2023-04-01T23:14:03;9.90;;;3.85;;
57663;SDS011;43493;53.098;6.064;2023-04-01T23:16:34;10.10;;;4.03;;
57663;SDS011;43493;53.098;6.064;2023-04-01T23:21:52;9.00;;;3.17;;
57663;SDS011;43493;53.098;6.064;2023-04-01T23:24:59;8.75;;;3.05;;
57663;SDS011;43493;53.098;6.064;2023-04-01T23:27:31;8.68;;;3.40;;
57663;SDS011;43493;53.098;6.064;2023-04-01T23:30:26;7.68;;;3.72;;
57663;SDS011;43493;53.098;6.064;2023-04-01T23:33:22;7.35;;;3.10;;
57663;SDS011;43493;53.098;6.064;2023-04-01T23:35:55;7.30;;;3.10;;
57663;SDS011;43493;53.098;6.064;2023-04-01T23:38:35;10.65;;;3.55;;
57663;SDS011;43493;53.098;6.064;2023-04-01T23:41:03;10.15;;;3.72;;
57663;SDS011;43493;53.098;6.064;2023-04-01T23:43:31;8.27;;;3.53;;
57663;SDS011;43493;53.098;6.064;2023-04-01T23:46:02;9.40;;;2.88;;
57663;SDS011;43493;53.098;6.064;2023-04-01T23:48:41;9.27;;;3.40;;
57663;SDS011;43493;53.098;6.064;2023-04-01T23:56:34;7.15;;;3.25;;
57663;SDS011;43493;53.098;6.064;2023-04-01T23:59:03;9.90;;;3.53;;
